TimeEST,TemperatureF,Dew PointF,Humidity,Sea Level PressureIn,VisibilityMPH,Wind Direction,Wind SpeedMPH,Gust SpeedMPH,PrecipitationIn,Events,Conditions,WindDirDegrees,DateUTC
12:29 AM,33.8,30.2,87,29.50,4.0,NW,12.7,-,0.01,Snow,Light Snow,320,2012-12-27 05:29:00
12:41 AM,33.8,30.2,87,29.50,2.0,NW,9.2,-,0.02,Snow,Light Snow,310,2012-12-27 05:41:00
12:50 AM,33.8,30.2,87,29.50,2.5,NW,8.1,-,0.03,Snow,Light Snow,310,2012-12-27 05:50:00
12:53 AM,34.0,30.9,89,29.51,4.0,NW,8.1,-,0.03,Snow,Light Snow,310,2012-12-27 05:53:00
1:15 AM,33.8,30.2,87,29.50,7.0,NW,9.2,-,0.00,Snow,Light Snow,310,2012-12-27 06:15:00
1:53 AM,34.0,30.0,85,29.53,10.0,NNW,9.2,-,0.00,,Overcast,330,2012-12-27 06:53:00
2:53 AM,34.0,28.0,79,29.56,10.0,NW,17.3,-,N/A,,Overcast,310,2012-12-27 07:53:00
3:53 AM,34.0,28.0,79,29.57,10.0,NNW,13.8,20.7,N/A,,Overcast,330,2012-12-27 08:53:00
4:24 AM,35.6,28.4,75,29.57,10.0,NW,12.7,19.6,N/A,,Overcast,320,2012-12-27 09:24:00
4:46 AM,35.6,28.4,75,29.57,10.0,NW,17.3,26.5,N/A,,Overcast,310,2012-12-27 09:46:00
4:53 AM,36.0,28.0,73,29.59,10.0,NW,15.0,-,N/A,,Overcast,310,2012-12-27 09:53:00
5:03 AM,35.6,28.4,75,29.58,10.0,WNW,23.0,28.8,0.01,,Overcast,300,2012-12-27 10:03:00
5:15 AM,35.6,28.4,75,29.58,10.0,WNW,20.7,26.5,0.01,,Overcast,300,2012-12-27 10:15:00
5:53 AM,36.0,28.0,73,29.63,10.0,WNW,19.6,29.9,0.01,,Overcast,300,2012-12-27 10:53:00
6:43 AM,35.6,26.6,70,29.65,10.0,WNW,19.6,27.6,N/A,,Overcast,290,2012-12-27 11:43:00
6:53 AM,36.0,26.1,67,29.67,10.0,WNW,25.3,-,N/A,,Overcast,290,2012-12-27 11:53:00
7:53 AM,35.1,25.0,67,29.69,10.0,WNW,21.9,28.8,N/A,,Mostly Cloudy,290,2012-12-27 12:53:00
8:53 AM,36.0,25.0,64,29.74,10.0,West,16.1,23.0,N/A,,Overcast,280,2012-12-27 13:53:00
9:53 AM,36.0,25.0,64,29.79,10.0,WNW,18.4,42.6,N/A,,Overcast,290,2012-12-27 14:53:00
10:53 AM,37.0,24.1,59,29.82,10.0,WNW,23.0,31.1,N/A,,Overcast,300,2012-12-27 15:53:00
11:53 AM,36.0,24.1,62,29.83,10.0,NW,10.4,20.7,N/A,,Overcast,320,2012-12-27 16:53:00
12:53 PM,36.0,21.9,57,29.84,10.0,West,11.5,27.6,N/A,,Overcast,280,2012-12-27 17:53:00
1:53 PM,36.0,21.9,57,29.84,10.0,NNW,13.8,19.6,N/A,,Overcast,340,2012-12-27 18:53:00
2:53 PM,36.0,23.0,59,29.88,10.0,NW,8.1,17.3,N/A,,Overcast,310,2012-12-27 19:53:00
4:53 PM,35.1,24.1,64,29.92,10.0,West,13.8,19.6,N/A,,Overcast,270,2012-12-27 21:53:00
5:53 PM,35.1,24.1,64,29.95,10.0,WNW,9.2,17.3,N/A,,Overcast,300,2012-12-27 22:53:00
6:53 PM,35.1,24.1,64,29.97,10.0,West,15.0,23.0,N/A,,Overcast,280,2012-12-27 23:53:00
7:53 PM,35.1,24.1,64,29.98,10.0,WNW,17.3,27.6,N/A,,Overcast,290,2012-12-28 00:53:00
8:53 PM,36.0,24.1,62,30.00,10.0,NW,12.7,-,N/A,,Overcast,310,2012-12-28 01:53:00
9:53 PM,35.1,24.1,64,30.01,10.0,WNW,19.6,25.3,N/A,,Overcast,300,2012-12-28 02:53:00
10:53 PM,35.1,25.0,67,30.03,10.0,NW,17.3,21.9,N/A,,Overcast,320,2012-12-28 03:53:00
11:53 PM,35.1,25.0,67,30.03,10.0,NW,12.7,-,N/A,,Overcast,310,2012-12-28 04:53:00